Albuquerque, NM (87112)

6:01 AM MDT on August 29, 2014 (GMT -0600)
Hoffmantown (ABQ NE Hgts) | Change Station
CLOSE
Current Station
Personal Weather Station
Location: Albuquerque, NM
Elevation: 5443 ft
Nearby Weather Stations

Elev 5443 ft 35.11 °N, 106.54 °W | Updated 1 minute ago

Clear
Clear
59.2 °F
Feels Like 59.2 °F
N
0.9
Wind Variable Wind from ENE
Gusts 0.9 mph

Today
High -- | Low -- °F
--% Chance of Precip.
Yesterday
High -- | Low -- °F
Precip. -- in
6:36 AM 7:36 PM
Waxing Crescent, 14% visible
Pressure 29.92 in
Visibility 10.0 miles
Clouds Clear
Dew Point 46 °F
Humidity 61%
Rainfall 0.00 in
Snow Depth Not available.
UV 0 out of 12
Pollen 8.30 out of 12
Air Quality Not available.
Flu Activity Not available.
METAR KABQ 291152Z 03005KT 10SM CLR 17/07 A3016 RMK AO2 SLP131 T01720067 10228 20167 53001

More Conditions Fewer Conditions

Pressure 29.92 in
Visibility 10.0 miles
Clouds Clear
Dew Point 46 °F
Humidity 61%
Rainfall 0.00 in
Snow Depth Not available.
UV 0 out of 12
Pollen 8.30 out of 12
Air Quality Not available.
Flu Activity Not available.
METAR KABQ 291152Z 03005KT 10SM CLR 17/07 A3016 RMK AO2 SLP131 T01720067 10228 20167 53001

More Conditions Fewer Conditions

10-Day Weather Forecast

Almanac

Astronomy

Aug. 29, 2014 Rise Set
Actual Time 6:36 AM MDT 7:36 PM MDT
Civil Twilight 6:10 AM MDT 8:02 PM MDT
Nautical Twilight 5:39 AM MDT 8:33 PM MDT
Astronomical Twilight 5:07 AM MDT 9:05 PM MDT
Moon 10:18 AM MDT 9:47 PM MDT
Length of Visible Light 13h 52m
Length of Day
13h 00m
Tomorrow will be 2m 6s shorter.
Waxing Crescent, 14% of the Moon is Illuminated
Today
Waxing Crescent
Sep 2
First Quarter
Sep 8
Full
Sep 15
Last Quarter
Sep 24
New

Today's Extremes

State Highs State Lows

Community

WunderPhotos

Upload Photos

1,748,214 photos uploaded!

Nearby

Snow Depth

Station Depth Elevation
Quemazon 1 in 9500 ft
Wesner Springs 2 in 11120 ft
Gallegos Peak 0 in 9800 ft
Bateman 0 in 9300 ft
Rice Park 0 in 8460 ft

Earthquake Activity

City Distance Mag. Time & Date
No recent earthquake activity has been reported nearby.
Minimum magnitude displayed is 2.5.

Coastal Water Temperatures

Place Temperature
No Stations Reporting

Nearby Weather Stations